Time;durP1;ratioP1;P1;durP2;ratioP2;P2;SDS_P1;SDS_P2;PMS_P1;PMS_P2;Temp;Humidity;BMP_temperature;BMP_pressure;BME280_temperature;BME280_humidity;BME280_pressure;Samples;Min_cycle;Max_cycle;Signal;HPM_P1;HPM_P2
2022/09/03 00:00:33;;;;;;;3.12;0.20;;;;;;;;;;1976089;71;26383;-42
2022/09/03 00:03:05;;;;;;;0.25;0.20;;;;;;;;;;1974843;71;26688;-42
2022/09/03 00:05:36;;;;;;;0.20;0.20;;;;;;;;;;1975570;71;26742;-43
2022/09/03 00:08:08;;;;;;;0.30;0.30;;;;;;;;;;1981471;71;26319;-44
2022/09/03 00:10:52;;;;;;;0.20;0.20;;;;;;;;;;1986750;70;26257;-44
2022/09/03 00:13:21;;;;;;;0.10;0.10;;;;;;;;;;1977776;70;26629;-42
2022/09/03 00:15:50;;;;;;;0.10;0.10;;;;;;;;;;1976412;71;26255;-44
2022/09/03 00:18:19;;;;;;;0.20;0.20;;;;;;;;;;1974900;71;26835;-45
2022/09/03 00:20:51;;;;;;;0.10;0.10;;;;;;;;;;1969140;71;26283;-43
2022/09/03 00:23:22;;;;;;;0.10;0.10;;;;;;;;;;1976120;71;26757;-42
2022/09/03 00:25:57;;;;;;;0.28;0.28;;;;;;;;;;1961122;71;26727;-47
2022/09/03 00:28:26;;;;;;;0.20;0.20;;;;;;;;;;1962861;71;26265;-47
2022/09/03 00:30:55;;;;;;;0.20;0.20;;;;;;;;;;1982103;71;26315;-43
2022/09/03 00:33:27;;;;;;;0.20;0.20;;;;;;;;;;1966986;71;26298;-43
2022/09/03 00:35:56;;;;;;;0.23;0.23;;;;;;;;;;1970899;71;26274;-45
2022/09/03 00:38:23;;;;;;;0.20;0.20;;;;;;;;;;1972238;71;26260;-44
2022/09/03 00:41:09;;;;;;;0.20;0.20;;;;;;;;;;1964072;71;26267;-44
2022/09/03 00:43:45;;;;;;;0.30;0.30;;;;;;;;;;1979853;70;26271;-41
2022/09/03 00:46:22;;;;;;;0.20;0.20;;;;;;;;;;1973787;70;26267;-44
2022/09/03 00:48:51;;;;;;;0.20;0.20;;;;;;;;;;1987578;71;26255;-43
2022/09/03 00:51:24;;;;;;;0.10;0.10;;;;;;;;;;1970771;71;26263;-43
2022/09/03 00:53:53;;;;;;;0.30;0.30;;;;;;;;;;1973201;71;26207;-42
2022/09/03 00:56:25;;;;;;;0.20;0.20;;;;;;;;;;1969907;71;26245;-41
2022/09/03 00:59:02;;;;;;;0.20;0.20;;;;;;;;;;1974674;71;26721;-43
2022/09/03 01:01:32;;;;;;;0.25;0.25;;;;;;;;;;1976217;71;26319;-42
2022/09/03 01:04:02;;;;;;;0.30;0.30;;;;;;;;;;1965142;71;26263;-42
2022/09/03 01:06:52;;;;;;;0.30;0.30;;;;;;;;;;1969150;71;26840;-43
2022/09/03 01:09:23;;;;;;;0.30;0.30;;;;;;;;;;1968036;70;26312;-45
2022/09/03 01:12:00;;;;;;;1.85;0.30;;;;;;;;;;1978748;70;26694;-43
2022/09/03 01:14:29;;;;;;;0.20;0.20;;;;;;;;;;1978136;71;26262;-43
2022/09/03 01:16:58;;;;;;;0.30;0.30;;;;;;;;;;1981369;71;26284;-44
2022/09/03 01:19:27;;;;;;;0.20;0.20;;;;;;;;;;1974155;70;26256;-43
2022/09/03 01:21:57;;;;;;;0.30;0.30;;;;;;;;;;1968714;71;26676;-44
2022/09/03 01:24:35;;;;;;;0.28;0.28;;;;;;;;;;1970560;71;26250;-47
2022/09/03 01:27:19;;;;;;;0.30;0.30;;;;;;;;;;1966602;71;26248;-48
2022/09/03 01:30:03;;;;;;;0.20;0.20;;;;;;;;;;1964380;70;26272;-42
2022/09/03 01:32:32;;;;;;;1.75;0.20;;;;;;;;;;1972030;71;26332;-43
2022/09/03 01:35:00;;;;;;;0.30;0.30;;;;;;;;;;1964690;70;26607;-43
2022/09/03 01:37:35;;;;;;;1.35;0.20;;;;;;;;;;1975771;70;26292;-42
2022/09/03 01:40:04;;;;;;;0.23;0.20;;;;;;;;;;1967371;71;26275;-47
2022/09/03 01:42:49;;;;;;;0.28;0.20;;;;;;;;;;1998952;71;26226;-42
2022/09/03 01:45:28;;;;;;;4.17;0.33;;;;;;;;;;1986717;70;26279;-43
2022/09/03 01:48:00;;;;;;;0.23;0.23;;;;;;;;;;1979653;70;26260;-46
2022/09/03 01:50:41;;;;;;;0.45;0.28;;;;;;;;;;1975903;71;26321;-47
2022/09/03 01:53:29;;;;;;;0.20;0.20;;;;;;;;;;1986073;70;27463;-42
2022/09/03 01:56:15;;;;;;;0.95;0.40;;;;;;;;;;1977151;70;26298;-46
2022/09/03 01:58:55;;;;;;;0.28;0.25;;;;;;;;;;1964664;71;26249;-42
2022/09/03 02:01:23;;;;;;;3.72;0.30;;;;;;;;;;1972131;71;26740;-43
2022/09/03 02:03:50;;;;;;;0.30;0.30;;;;;;;;;;1972849;71;26733;-42
2022/09/03 02:06:19;;;;;;;0.88;0.20;;;;;;;;;;1997578;70;26367;-46
2022/09/03 02:08:47;;;;;;;0.65;0.30;;;;;;;;;;1984399;71;26321;-43
2022/09/03 02:11:14;;;;;;;0.50;0.20;;;;;;;;;;1989191;71;26333;-41
2022/09/03 02:13:43;;;;;;;0.20;0.20;;;;;;;;;;1982373;70;26338;-44
2022/09/03 02:16:19;;;;;;;0.28;0.20;;;;;;;;;;1977824;70;26860;-43
2022/09/03 02:18:47;;;;;;;0.20;0.20;;;;;;;;;;1978667;70;26334;-43
2022/09/03 02:21:16;;;;;;;0.40;0.30;;;;;;;;;;1967534;71;26249;-43
2022/09/03 02:23:43;;;;;;;0.37;0.20;;;;;;;;;;1987324;70;27379;-46
2022/09/03 02:26:12;;;;;;;0.30;0.20;;;;;;;;;;1969114;70;26358;-44
2022/09/03 02:28:39;;;;;;;0.95;0.20;;;;;;;;;;1974365;70;26244;-45
2022/09/03 02:31:07;;;;;;;0.30;0.30;;;;;;;;;;1974319;70;26251;-42
2022/09/03 02:33:38;;;;;;;0.30;0.30;;;;;;;;;;1971153;70;26194;-42
2022/09/03 02:36:07;;;;;;;0.20;0.20;;;;;;;;;;1986039;70;26275;-44
2022/09/03 02:38:35;;;;;;;0.20;0.20;;;;;;;;;;1963636;71;26267;-46
2022/09/03 02:41:02;;;;;;;0.30;0.30;;;;;;;;;;1973877;71;26278;-42
2022/09/03 02:43:40;;;;;;;0.20;0.20;;;;;;;;;;1983312;71;26738;-45
2022/09/03 02:46:09;;;;;;;0.25;0.25;;;;;;;;;;1969218;71;26225;-43
2022/09/03 02:48:36;;;;;;;1.07;0.25;;;;;;;;;;1971820;71;26244;-43
2022/09/03 02:51:03;;;;;;;0.70;0.30;;;;;;;;;;1976384;70;26340;-43
2022/09/03 02:53:31;;;;;;;0.30;0.30;;;;;;;;;;1975992;71;26219;-42
2022/09/03 02:55:59;;;;;;;0.17;0.17;;;;;;;;;;1965422;71;26590;-44
2022/09/03 02:58:26;;;;;;;0.30;0.30;;;;;;;;;;1968183;71;26300;-42
2022/09/03 03:00:54;;;;;;;0.20;0.20;;;;;;;;;;1979316;71;26311;-43
2022/09/03 03:03:22;;;;;;;1.02;0.30;;;;;;;;;;1979849;71;26813;-46
2022/09/03 03:05:50;;;;;;;1.98;0.60;;;;;;;;;;1969182;70;26812;-46
2022/09/03 03:08:20;;;;;;;1.02;0.23;;;;;;;;;;1979817;71;26249;-42
2022/09/03 03:10:48;;;;;;;0.30;0.30;;;;;;;;;;1973742;71;26327;-42
2022/09/03 03:13:16;;;;;;;0.62;0.23;;;;;;;;;;1975922;70;26352;-43
2022/09/03 03:15:43;;;;;;;0.30;0.30;;;;;;;;;;1967643;71;26676;-47
2022/09/03 03:18:12;;;;;;;3.00;0.30;;;;;;;;;;1980075;71;26208;-41
2022/09/03 03:20:40;;;;;;;0.20;0.20;;;;;;;;;;1985830;70;26302;-43
2022/09/03 03:23:08;;;;;;;0.25;0.25;;;;;;;;;;1976773;70;26268;-43
2022/09/03 03:25:36;;;;;;;0.30;0.30;;;;;;;;;;1977147;71;26739;-47
2022/09/03 03:28:04;;;;;;;0.28;0.23;;;;;;;;;;1970650;71;26236;-42
2022/09/03 03:30:32;;;;;;;0.60;0.60;;;;;;;;;;1986039;71;26288;-44
2022/09/03 03:33:00;;;;;;;0.20;0.20;;;;;;;;;;1981671;71;26333;-44
2022/09/03 03:35:28;;;;;;;1.10;0.13;;;;;;;;;;1983670;71;26437;-45
2022/09/03 03:37:56;;;;;;;1.25;0.42;;;;;;;;;;1978982;70;26270;-45
2022/09/03 03:40:24;;;;;;;0.33;0.30;;;;;;;;;;1979177;70;26357;-43
2022/09/03 03:42:52;;;;;;;0.30;0.20;;;;;;;;;;1984377;71;26837;-44
2022/09/03 03:45:19;;;;;;;1.47;0.30;;;;;;;;;;1975935;71;26299;-42
2022/09/03 03:47:46;;;;;;;0.35;0.35;;;;;;;;;;1972422;71;26238;-47
2022/09/03 03:50:15;;;;;;;0.45;0.28;;;;;;;;;;1971536;71;26221;-42
2022/09/03 03:52:43;;;;;;;0.53;0.08;;;;;;;;;;1968594;71;26310;-42
2022/09/03 03:55:10;;;;;;;0.10;0.10;;;;;;;;;;1982091;70;26255;-42
2022/09/03 03:57:37;;;;;;;0.20;0.20;;;;;;;;;;1974172;71;26353;-45
2022/09/03 04:00:05;;;;;;;0.42;0.10;;;;;;;;;;1981911;71;26292;-45
2022/09/03 04:02:33;;;;;;;0.20;0.15;;;;;;;;;;1979439;70;26196;-42
2022/09/03 04:05:00;;;;;;;0.10;0.10;;;;;;;;;;1976441;70;26246;-44
2022/09/03 04:07:27;;;;;;;0.75;0.28;;;;;;;;;;1980811;71;26215;-43
2022/09/03 04:09:55;;;;;;;0.50;0.30;;;;;;;;;;1981842;71;26272;-45
2022/09/03 04:12:22;;;;;;;0.10;0.10;;;;;;;;;;1976941;71;26778;-44
2022/09/03 04:14:49;;;;;;;0.13;0.13;;;;;;;;;;1977109;70;26900;-46
2022/09/03 04:17:16;;;;;;;0.10;0.10;;;;;;;;;;1972634;71;26688;-43
2022/09/03 04:19:47;;;;;;;0.13;0.10;;;;;;;;;;1980285;71;26747;-43
2022/09/03 04:22:14;;;;;;;0.10;0.10;;;;;;;;;;1987541;70;26296;-43
2022/09/03 04:24:42;;;;;;;0.20;0.13;;;;;;;;;;1976372;71;26275;-45
2022/09/03 04:27:09;;;;;;;0.30;0.30;;;;;;;;;;1981073;71;27383;-43
2022/09/03 04:29:36;;;;;;;0.17;0.17;;;;;;;;;;1984905;71;26742;-42
2022/09/03 04:34:32;;;;;;;0.30;0.30;;;;;;;;;;1914255;71;26779;-45
2022/09/03 04:37:00;;;;;;;0.20;0.20;;;;;;;;;;1983793;70;26335;-41
2022/09/03 04:39:27;;;;;;;0.10;0.10;;;;;;;;;;1967525;71;26439;-45
2022/09/03 04:41:55;;;;;;;0.20;0.20;;;;;;;;;;1980983;71;26314;-44
2022/09/03 04:44:22;;;;;;;0.20;0.20;;;;;;;;;;1979765;70;26256;-41
2022/09/03 04:46:50;;;;;;;0.20;0.20;;;;;;;;;;1976587;70;26167;-42
2022/09/03 04:49:17;;;;;;;0.20;0.20;;;;;;;;;;1972661;71;26782;-40
2022/09/03 04:51:44;;;;;;;0.23;0.23;;;;;;;;;;1976141;71;26795;-46
2022/09/03 04:54:11;;;;;;;0.30;0.30;;;;;;;;;;1981586;71;26763;-42
2022/09/03 04:56:39;;;;;;;0.30;0.30;;;;;;;;;;1968200;71;26690;-41
2022/09/03 04:59:07;;;;;;;0.40;0.40;;;;;;;;;;1977667;70;26247;-41
2022/09/03 05:01:36;;;;;;;0.40;0.40;;;;;;;;;;1965099;70;26246;-42
2022/09/03 05:04:03;;;;;;;0.37;0.37;;;;;;;;;;1979908;71;26191;-41
2022/09/03 05:06:31;;;;;;;0.57;0.57;;;;;;;;;;1978596;71;26634;-42
2022/09/03 05:08:59;;;;;;;0.40;0.40;;;;;;;;;;1970100;71;26228;-41
2022/09/03 05:11:27;;;;;;;0.50;0.50;;;;;;;;;;1975811;71;26197;-41
2022/09/03 05:13:55;;;;;;;0.53;0.53;;;;;;;;;;1985020;70;26293;-44
2022/09/03 05:16:23;;;;;;;0.50;0.50;;;;;;;;;;1990063;71;26500;-40
2022/09/03 05:18:54;;;;;;;0.50;0.50;;;;;;;;;;1980979;70;26765;-46
2022/09/03 05:21:22;;;;;;;0.50;0.50;;;;;;;;;;1976905;71;26264;-41
2022/09/03 05:23:50;;;;;;;0.40;0.40;;;;;;;;;;1984001;70;26656;-44
2022/09/03 05:26:22;;;;;;;0.57;0.57;;;;;;;;;;1976724;71;26226;-42
2022/09/03 05:28:50;;;;;;;0.75;0.40;;;;;;;;;;1981640;70;26271;-45
2022/09/03 05:31:19;;;;;;;0.57;0.57;;;;;;;;;;1982406;70;26218;-45
2022/09/03 05:33:47;;;;;;;0.45;0.45;;;;;;;;;;1976672;71;26231;-47
2022/09/03 05:36:16;;;;;;;0.50;0.50;;;;;;;;;;1989768;71;26226;-45
2022/09/03 05:38:44;;;;;;;0.50;0.50;;;;;;;;;;1978128;70;26233;-45
2022/09/03 05:41:12;;;;;;;0.60;0.60;;;;;;;;;;1983427;71;26795;-43
2022/09/03 05:43:40;;;;;;;0.50;0.50;;;;;;;;;;1983110;71;26216;-41
2022/09/03 05:46:08;;;;;;;0.60;0.60;;;;;;;;;;1970422;71;26902;-44
2022/09/03 05:48:36;;;;;;;0.40;0.40;;;;;;;;;;1969296;71;26273;-42
2022/09/03 05:51:05;;;;;;;0.60;0.60;;;;;;;;;;1984320;70;26226;-44
2022/09/03 05:53:34;;;;;;;0.60;0.60;;;;;;;;;;1975729;71;26761;-41
2022/09/03 05:56:02;;;;;;;6.62;0.70;;;;;;;;;;1979995;71;26255;-42
2022/09/03 05:58:38;;;;;;;4.47;0.60;;;;;;;;;;1971911;71;26352;-42
2022/09/03 06:01:15;;;;;;;6.03;0.80;;;;;;;;;;1976982;70;26568;-42
2022/09/03 06:03:43;;;;;;;0.95;0.60;;;;;;;;;;1972807;70;26296;-45
2022/09/03 06:06:12;;;;;;;4.53;0.72;;;;;;;;;;1982965;71;26248;-41
2022/09/03 06:08:40;;;;;;;5.58;0.90;;;;;;;;;;1972938;70;26279;-42
2022/09/03 06:11:08;;;;;;;1.62;0.50;;;;;;;;;;1985320;71;26219;-42
2022/09/03 06:13:36;;;;;;;2.25;0.40;;;;;;;;;;1976891;70;27040;-41
2022/09/03 06:16:04;;;;;;;2.72;0.50;;;;;;;;;;2000899;70;26234;-41
2022/09/03 06:18:32;;;;;;;8.30;0.82;;;;;;;;;;1994021;71;26648;-41
2022/09/03 06:21:00;;;;;;;3.30;0.68;;;;;;;;;;1984146;71;26264;-43
2022/09/03 06:23:28;;;;;;;9.95;0.70;;;;;;;;;;1983176;70;26556;-43
2022/09/03 06:26:02;;;;;;;2.85;0.80;;;;;;;;;;1991989;70;26336;-45
2022/09/03 06:28:33;;;;;;;5.47;0.82;;;;;;;;;;1982934;71;26278;-41
2022/09/03 06:31:04;;;;;;;2.65;0.70;;;;;;;;;;1984248;71;26730;-46
2022/09/03 06:33:32;;;;;;;5.72;0.80;;;;;;;;;;1978929;70;26761;-45
2022/09/03 06:36:00;;;;;;;5.17;0.70;;;;;;;;;;1980511;71;26690;-45
2022/09/03 06:38:30;;;;;;;5.70;0.70;;;;;;;;;;1970224;71;26764;-42
2022/09/03 06:41:03;;;;;;;1.05;0.50;;;;;;;;;;1989213;71;26588;-43
2022/09/03 06:43:29;;;;;;;1.80;0.65;;;;;;;;;;1994845;70;26266;-41
2022/09/03 06:45:58;;;;;;;3.77;0.80;;;;;;;;;;1986399;70;26265;-45
2022/09/03 06:48:26;;;;;;;1.45;0.70;;;;;;;;;;1978439;71;26201;-41
2022/09/03 06:50:57;;;;;;;1.30;0.50;;;;;;;;;;1993875;70;27227;-45
2022/09/03 06:53:32;;;;;;;0.88;0.65;;;;;;;;;;1973026;71;26708;-50
2022/09/03 06:56:00;;;;;;;1.75;0.60;;;;;;;;;;1964547;71;26284;-41
2022/09/03 06:58:31;;;;;;;0.50;0.50;;;;;;;;;;1963590;72;26301;-42
2022/09/03 07:01:05;;;;;;;1.42;0.80;;;;;;;;;;1976169;71;26194;-44
2022/09/03 07:03:33;;;;;;;2.42;0.60;;;;;;;;;;1979148;71;26375;-42
2022/09/03 07:06:08;;;;;;;1.40;0.50;;;;;;;;;;1987514;70;26280;-42
2022/09/03 07:08:35;;;;;;;0.80;0.40;;;;;;;;;;1981747;71;26321;-42
2022/09/03 07:11:07;;;;;;;2.58;0.40;;;;;;;;;;1985020;70;27271;-45
2022/09/03 07:13:34;;;;;;;1.30;0.40;;;;;;;;;;1982614;71;26303;-46
2022/09/03 07:16:02;;;;;;;5.83;0.60;;;;;;;;;;1992853;71;26844;-42
2022/09/03 07:18:30;;;;;;;11.03;0.90;;;;;;;;;;1975158;71;26295;-40
2022/09/03 07:21:02;;;;;;;3.00;0.80;;;;;;;;;;1964060;70;26262;-43
2022/09/03 07:23:30;;;;;;;4.45;0.80;;;;;;;;;;1972979;71;26901;-42
2022/09/03 07:25:58;;;;;;;4.65;0.80;;;;;;;;;;1964996;71;26280;-41
2022/09/03 07:28:26;;;;;;;8.08;0.85;;;;;;;;;;1961124;71;26304;-42
2022/09/03 07:30:54;;;;;;;3.45;0.70;;;;;;;;;;1975337;71;26356;-44
2022/09/03 07:33:21;;;;;;;2.08;0.68;;;;;;;;;;1991302;70;26329;-43
2022/09/03 07:35:48;;;;;;;2.72;0.95;;;;;;;;;;1986343;70;26193;-42
2022/09/03 07:38:19;;;;;;;5.78;0.85;;;;;;;;;;1991082;70;26577;-42
2022/09/03 07:40:46;;;;;;;2.27;0.80;;;;;;;;;;2001501;70;26336;-44
2022/09/03 07:43:14;;;;;;;6.42;0.90;;;;;;;;;;1972403;71;26367;-41
2022/09/03 07:45:44;;;;;;;5.83;0.70;;;;;;;;;;1985891;71;26797;-41
2022/09/03 07:48:10;;;;;;;3.67;0.65;;;;;;;;;;1977527;70;26301;-45
2022/09/03 07:50:39;;;;;;;2.65;0.70;;;;;;;;;;1977414;71;26687;-43
2022/09/03 07:53:07;;;;;;;2.87;0.70;;;;;;;;;;1975978;71;26333;-44
2022/09/03 07:55:34;;;;;;;1.05;0.50;;;;;;;;;;1983275;71;26306;-42
2022/09/03 07:58:02;;;;;;;0.65;0.55;;;;;;;;;;1982036;71;26217;-42
2022/09/03 08:00:31;;;;;;;4.83;0.70;;;;;;;;;;1987229;71;26233;-41
2022/09/03 08:03:04;;;;;;;0.65;0.42;;;;;;;;;;1977994;71;26915;-43
2022/09/03 08:05:27;;;;;;;2.92;0.50;;;;;;;;;;1981844;71;26262;-41
2022/09/03 08:07:54;;;;;;;6.85;0.60;;;;;;;;;;1989284;70;26280;-42
2022/09/03 08:10:23;;;;;;;2.00;0.60;;;;;;;;;;1987137;71;26815;-40
2022/09/03 08:12:50;;;;;;;3.02;0.80;;;;;;;;;;1998275;70;26332;-41
2022/09/03 08:15:17;;;;;;;1.67;0.70;;;;;;;;;;1982857;71;27291;-44
2022/09/03 08:17:45;;;;;;;2.72;0.47;;;;;;;;;;1980855;71;26759;-44
2022/09/03 08:20:12;;;;;;;3.83;0.60;;;;;;;;;;1981359;71;26234;-41
2022/09/03 08:22:40;;;;;;;0.50;0.47;;;;;;;;;;1985938;70;26218;-43
2022/09/03 08:25:08;;;;;;;2.95;0.50;;;;;;;;;;1973889;70;26238;-42
2022/09/03 08:27:35;;;;;;;3.75;0.50;;;;;;;;;;1983435;71;26622;-40
2022/09/03 08:30:03;;;;;;;2.62;0.50;;;;;;;;;;1973702;70;26175;-40
2022/09/03 08:32:30;;;;;;;3.62;0.60;;;;;;;;;;1975551;71;26668;-40
2022/09/03 08:34:58;;;;;;;3.15;0.42;;;;;;;;;;1977556;71;26257;-40
2022/09/03 08:37:27;;;;;;;1.47;0.45;;;;;;;;;;1979287;71;26301;-40
2022/09/03 08:39:54;;;;;;;0.55;0.37;;;;;;;;;;1969692;71;26770;-42
2022/09/03 08:42:29;;;;;;;3.12;0.47;;;;;;;;;;1988645;70;26796;-40
2022/09/03 08:44:58;;;;;;;1.12;0.45;;;;;;;;;;1990606;70;26251;-41
2022/09/03 08:47:39;;;;;;;0.47;0.42;;;;;;;;;;1994673;70;26286;-41
2022/09/03 08:50:23;;;;;;;2.08;0.50;;;;;;;;;;1957073;71;26668;-41
2022/09/03 08:52:51;;;;;;;0.70;0.40;;;;;;;;;;1979630;70;26251;-43
2022/09/03 08:55:29;;;;;;;0.78;0.40;;;;;;;;;;1988080;71;26264;-41
2022/09/03 08:57:58;;;;;;;0.75;0.40;;;;;;;;;;1979044;70;27138;-42
2022/09/03 09:00:26;;;;;;;0.55;0.30;;;;;;;;;;1988085;70;26837;-41
2022/09/03 09:02:58;;;;;;;1.20;0.40;;;;;;;;;;1961846;70;27247;-44
2022/09/03 09:05:27;;;;;;;0.35;0.35;;;;;;;;;;2000405;70;26293;-42
2022/09/03 09:08:06;;;;;;;1.85;0.60;;;;;;;;;;1962830;71;26315;-41
2022/09/03 09:10:35;;;;;;;0.72;0.40;;;;;;;;;;1988821;71;26228;-43
2022/09/03 09:13:12;;;;;;;0.72;0.50;;;;;;;;;;1978295;70;26316;-41
2022/09/03 09:15:43;;;;;;;0.70;0.50;;;;;;;;;;1994861;71;26281;-43
2022/09/03 09:18:12;;;;;;;0.50;0.40;;;;;;;;;;1969110;71;26694;-41
2022/09/03 09:20:50;;;;;;;0.30;0.30;;;;;;;;;;1967564;71;26200;-41
2022/09/03 09:23:28;;;;;;;0.45;0.28;;;;;;;;;;1984638;70;26237;-42
2022/09/03 09:25:56;;;;;;;1.55;0.28;;;;;;;;;;1966602;71;26263;-41
2022/09/03 09:28:25;;;;;;;0.30;0.30;;;;;;;;;;1978581;71;26547;-41
2022/09/03 09:30:54;;;;;;;0.30;0.30;;;;;;;;;;1976169;71;26522;-46
2022/09/03 09:33:21;;;;;;;0.35;0.35;;;;;;;;;;1972477;70;26241;-42
2022/09/03 09:35:49;;;;;;;0.37;0.37;;;;;;;;;;1987772;71;26768;-42
2022/09/03 09:38:18;;;;;;;0.20;0.20;;;;;;;;;;1964375;71;26691;-42
2022/09/03 09:40:45;;;;;;;0.20;0.20;;;;;;;;;;1969279;71;26790;-42
2022/09/03 09:43:19;;;;;;;0.20;0.20;;;;;;;;;;1991109;71;26553;-42
2022/09/03 09:45:47;;;;;;;0.85;0.35;;;;;;;;;;2000207;70;26723;-42
2022/09/03 09:48:22;;;;;;;1.45;0.40;;;;;;;;;;1972754;71;26316;-43
2022/09/03 09:50:50;;;;;;;0.25;0.25;;;;;;;;;;1973444;71;26206;-41
2022/09/03 09:53:20;;;;;;;0.28;0.28;;;;;;;;;;1985655;70;26314;-43
2022/09/03 09:55:51;;;;;;;0.30;0.30;;;;;;;;;;1980350;71;26770;-42
2022/09/03 09:58:19;;;;;;;0.30;0.30;;;;;;;;;;1971518;71;26265;-41
2022/09/03 10:00:54;;;;;;;0.20;0.20;;;;;;;;;;1973595;71;26237;-43
2022/09/03 10:03:21;;;;;;;1.77;0.28;;;;;;;;;;1960259;71;26685;-41
2022/09/03 10:05:56;;;;;;;0.40;0.40;;;;;;;;;;1971743;71;26275;-42
2022/09/03 10:08:24;;;;;;;0.30;0.30;;;;;;;;;;1976552;70;26182;-42
2022/09/03 10:10:51;;;;;;;0.20;0.20;;;;;;;;;;1971018;70;26249;-43
2022/09/03 10:13:20;;;;;;;0.33;0.33;;;;;;;;;;1978902;71;26727;-41
2022/09/03 10:15:49;;;;;;;0.20;0.20;;;;;;;;;;1987851;71;25692;-42
2022/09/03 10:18:27;;;;;;;0.20;0.20;;;;;;;;;;1980034;70;26338;-41
2022/09/03 10:20:57;;;;;;;0.10;0.10;;;;;;;;;;1970587;71;26189;-44
2022/09/03 10:23:28;;;;;;;0.30;0.30;;;;;;;;;;1964317;71;26302;-41
2022/09/03 10:26:05;;;;;;;0.30;0.30;;;;;;;;;;1995581;71;26270;-42
2022/09/03 10:28:30;;;;;;;0.30;0.30;;;;;;;;;;1974913;71;26308;-41
2022/09/03 10:30:58;;;;;;;0.20;0.20;;;;;;;;;;1984682;71;26355;-42
2022/09/03 10:33:28;;;;;;;0.75;0.25;;;;;;;;;;1968394;71;26213;-42
2022/09/03 10:35:59;;;;;;;0.20;0.20;;;;;;;;;;1984534;70;26335;-43
2022/09/03 10:38:31;;;;;;;0.35;0.35;;;;;;;;;;1971165;71;26301;-41
2022/09/03 10:41:01;;;;;;;0.20;0.20;;;;;;;;;;1997183;71;26733;-42
2022/09/03 10:43:31;;;;;;;0.20;0.20;;;;;;;;;;1947292;73;26233;-42
2022/09/03 10:46:09;;;;;;;0.25;0.25;;;;;;;;;;1978154;71;26221;-43
2022/09/03 10:48:46;;;;;;;0.20;0.20;;;;;;;;;;1988324;70;26285;-42
2022/09/03 10:51:19;;;;;;;0.15;0.15;;;;;;;;;;1963027;71;26790;-41
2022/09/03 10:53:50;;;;;;;0.10;0.10;;;;;;;;;;1969210;71;26345;-42
2022/09/03 10:56:29;;;;;;;0.10;0.10;;;;;;;;;;1988028;71;26237;-42
2022/09/03 10:59:04;;;;;;;0.28;0.28;;;;;;;;;;1979014;70;26678;-42
2022/09/03 11:01:36;;;;;;;0.20;0.20;;;;;;;;;;1968729;70;27095;-42
2022/09/03 11:04:13;;;;;;;0.10;0.10;;;;;;;;;;1972631;71;26188;-41
2022/09/03 11:06:41;;;;;;;0.20;0.20;;;;;;;;;;1985414;71;26294;-43
2022/09/03 11:09:13;;;;;;;0.20;0.20;;;;;;;;;;1968501;71;26320;-42
2022/09/03 11:11:42;;;;;;;0.20;0.20;;;;;;;;;;1981286;71;26641;-43
2022/09/03 11:14:11;;;;;;;0.25;0.25;;;;;;;;;;1978615;71;26221;-38
2022/09/03 11:16:39;;;;;;;0.20;0.20;;;;;;;;;;1981963;71;26284;-41
2022/09/03 11:19:10;;;;;;;0.20;0.20;;;;;;;;;;1966638;71;26344;-43
2022/09/03 11:21:40;;;;;;;0.20;0.20;;;;;;;;;;1966925;71;26252;-42
2022/09/03 11:24:09;;;;;;;0.20;0.20;;;;;;;;;;1964545;71;26355;-39
2022/09/03 11:26:38;;;;;;;0.20;0.20;;;;;;;;;;1971530;71;26300;-41
2022/09/03 11:29:07;;;;;;;0.10;0.10;;;;;;;;;;1975887;71;26747;-42
2022/09/03 11:31:46;;;;;;;0.10;0.10;;;;;;;;;;1971277;71;26334;-41
2022/09/03 11:34:15;;;;;;;0.20;0.20;;;;;;;;;;1977587;70;26709;-42
2022/09/03 11:36:42;;;;;;;0.10;0.10;;;;;;;;;;1985306;71;26238;-42
2022/09/03 11:39:15;;;;;;;0.20;0.20;;;;;;;;;;1969058;70;26698;-41
2022/09/03 11:41:42;;;;;;;0.20;0.20;;;;;;;;;;1973262;71;26245;-43
2022/09/03 11:44:19;;;;;;;0.15;0.15;;;;;;;;;;1978555;71;26314;-42
2022/09/03 11:46:56;;;;;;;0.20;0.20;;;;;;;;;;1976508;71;26216;-43
2022/09/03 11:49:30;;;;;;;0.20;0.20;;;;;;;;;;1971507;71;26268;-42
2022/09/03 11:52:00;;;;;;;0.10;0.10;;;;;;;;;;1989598;71;26209;-41
2022/09/03 11:54:28;;;;;;;0.20;0.20;;;;;;;;;;1990097;70;26253;-44
2022/09/03 11:57:10;;;;;;;0.10;0.10;;;;;;;;;;1988137;70;26293;-42
2022/09/03 11:59:37;;;;;;;0.10;0.10;;;;;;;;;;1960795;71;26680;-42
2022/09/03 12:02:06;;;;;;;0.10;0.10;;;;;;;;;;1977879;71;26300;-40
2022/09/03 12:04:51;;;;;;;0.10;0.10;;;;;;;;;;1961229;71;26299;-40
2022/09/03 12:07:35;;;;;;;0.20;0.20;;;;;;;;;;1962041;71;26317;-41
2022/09/03 12:10:19;;;;;;;0.28;0.28;;;;;;;;;;1993154;71;26307;-41
2022/09/03 12:13:06;;;;;;;0.20;0.20;;;;;;;;;;1940670;73;26243;-40
2022/09/03 12:15:47;;;;;;;0.20;0.20;;;;;;;;;;1984338;70;26302;-40
2022/09/03 12:18:18;;;;;;;0.17;0.17;;;;;;;;;;1986809;71;27466;-40
2022/09/03 12:20:47;;;;;;;0.17;0.17;;;;;;;;;;1968722;71;26792;-42
2022/09/03 12:23:16;;;;;;;0.20;0.20;;;;;;;;;;1975885;70;26247;-40
2022/09/03 12:25:46;;;;;;;0.20;0.20;;;;;;;;;;1988614;71;26198;-42
2022/09/03 12:28:15;;;;;;;0.20;0.20;;;;;;;;;;1977669;71;26254;-41
2022/09/03 12:30:42;;;;;;;0.20;0.20;;;;;;;;;;1998422;71;26255;-41
2022/09/03 12:33:13;;;;;;;0.10;0.10;;;;;;;;;;1988660;70;26748;-41
2022/09/03 12:35:39;;;;;;;0.10;0.10;;;;;;;;;;1977418;70;26774;-41
2022/09/03 12:38:06;;;;;;;0.75;0.20;;;;;;;;;;1961424;72;26323;-40
2022/09/03 12:40:33;;;;;;;0.20;0.20;;;;;;;;;;1966219;71;26283;-40
2022/09/03 12:43:14;;;;;;;0.33;0.20;;;;;;;;;;1972977;71;26149;-41
2022/09/03 12:45:46;;;;;;;0.20;0.20;;;;;;;;;;1978306;71;26345;-40
2022/09/03 12:48:18;;;;;;;0.15;0.15;;;;;;;;;;1975479;71;26234;-41
2022/09/03 12:50:44;;;;;;;0.20;0.20;;;;;;;;;;1977818;71;26207;-40
2022/09/03 12:53:12;;;;;;;0.20;0.20;;;;;;;;;;1981031;70;26266;-40
2022/09/03 12:55:41;;;;;;;0.20;0.20;;;;;;;;;;1986670;71;26208;-43
2022/09/03 12:58:19;;;;;;;0.13;0.13;;;;;;;;;;1974723;71;26290;-41
2022/09/03 13:00:52;;;;;;;0.20;0.20;;;;;;;;;;1982110;70;26222;-43
2022/09/03 13:03:27;;;;;;;0.10;0.10;;;;;;;;;;1981028;70;26390;-41
2022/09/03 13:05:56;;;;;;;0.20;0.20;;;;;;;;;;1994456;71;26237;-42
2022/09/03 13:08:25;;;;;;;0.20;0.20;;;;;;;;;;1980755;70;26238;-42
2022/09/03 13:10:56;;;;;;;0.20;0.20;;;;;;;;;;2005014;70;26274;-41
2022/09/03 13:13:25;;;;;;;0.30;0.30;;;;;;;;;;1973956;70;26313;-42
2022/09/03 13:16:10;;;;;;;0.10;0.10;;;;;;;;;;1980403;70;26236;-41
2022/09/03 13:18:56;;;;;;;0.20;0.20;;;;;;;;;;1990983;70;26257;-41
2022/09/03 13:21:28;;;;;;;0.20;0.20;;;;;;;;;;1969948;71;26742;-42
2022/09/03 13:23:57;;;;;;;0.30;0.30;;;;;;;;;;1967103;71;26251;-41
2022/09/03 13:26:43;;;;;;;0.30;0.30;;;;;;;;;;1965372;71;27184;-41
2022/09/03 13:29:15;;;;;;;0.20;0.20;;;;;;;;;;1972183;71;26292;-42
2022/09/03 13:31:46;;;;;;;0.20;0.20;;;;;;;;;;1977696;71;26274;-40
2022/09/03 13:34:27;;;;;;;0.20;0.20;;;;;;;;;;1983332;70;26365;-42
2022/09/03 13:36:57;;;;;;;0.20;0.20;;;;;;;;;;1976800;71;26240;-42
2022/09/03 13:39:25;;;;;;;0.10;0.10;;;;;;;;;;1982135;71;26712;-42
2022/09/03 13:41:54;;;;;;;0.47;0.30;;;;;;;;;;1991758;70;27325;-43
2022/09/03 13:44:23;;;;;;;0.20;0.20;;;;;;;;;;1992628;70;26313;-43
2022/09/03 13:46:52;;;;;;;0.20;0.20;;;;;;;;;;1974253;71;26270;-42
2022/09/03 13:52:10;;;;;;;0.30;0.30;;;;;;;;;;1969429;70;26245;-40
2022/09/03 13:54:39;;;;;;;0.20;0.20;;;;;;;;;;1972362;71;26332;-40
2022/09/03 13:57:20;;;;;;;0.17;0.17;;;;;;;;;;1977849;71;26221;-39
2022/09/03 13:59:49;;;;;;;0.28;0.28;;;;;;;;;;1982785;70;26257;-42
2022/09/03 14:02:24;;;;;;;0.20;0.20;;;;;;;;;;1994200;70;26331;-42
2022/09/03 14:04:58;;;;;;;0.20;0.20;;;;;;;;;;1978884;71;26249;-43
2022/09/03 14:07:46;;;;;;;0.20;0.20;;;;;;;;;;1987572;71;26647;-42
2022/09/03 14:10:15;;;;;;;0.20;0.20;;;;;;;;;;1988840;71;26761;-42
2022/09/03 14:13:01;;;;;;;0.20;0.20;;;;;;;;;;1991591;70;26375;-42
2022/09/03 14:15:30;;;;;;;0.17;0.17;;;;;;;;;;1994105;70;26311;-41
2022/09/03 14:18:17;;;;;;;0.20;0.20;;;;;;;;;;1976349;71;26641;-45
2022/09/03 14:20:49;;;;;;;0.20;0.20;;;;;;;;;;1962984;71;26634;-42
2022/09/03 14:23:27;;;;;;;0.10;0.10;;;;;;;;;;1987137;70;26847;-42
2022/09/03 14:25:55;;;;;;;0.20;0.20;;;;;;;;;;1970031;71;26783;-42
2022/09/03 14:28:33;;;;;;;0.20;0.20;;;;;;;;;;1983095;70;26291;-42
2022/09/03 14:31:18;;;;;;;0.20;0.20;;;;;;;;;;1986316;70;26916;-39
2022/09/03 14:33:53;;;;;;;0.15;0.15;;;;;;;;;;1976568;70;26358;-44
2022/09/03 14:36:22;;;;;;;0.20;0.20;;;;;;;;;;1990932;71;26196;-40
2022/09/03 14:39:07;;;;;;;0.23;0.23;;;;;;;;;;1989271;70;26329;-43
2022/09/03 14:41:36;;;;;;;0.30;0.30;;;;;;;;;;1962151;72;26664;-40
2022/09/03 14:44:05;;;;;;;0.23;0.23;;;;;;;;;;1992031;70;27488;-41
2022/09/03 14:46:34;;;;;;;0.20;0.20;;;;;;;;;;1996572;70;27414;-42
2022/09/03 14:49:05;;;;;;;0.20;0.20;;;;;;;;;;1983395;71;26750;-41
2022/09/03 14:51:37;;;;;;;0.20;0.20;;;;;;;;;;1974268;71;26672;-41
2022/09/03 14:54:12;;;;;;;0.20;0.20;;;;;;;;;;1971349;71;26396;-40
2022/09/03 14:56:44;;;;;;;0.20;0.20;;;;;;;;;;1982349;70;26182;-42
2022/09/03 14:59:15;;;;;;;0.20;0.20;;;;;;;;;;2005972;70;26241;-43
2022/09/03 15:01:44;;;;;;;0.10;0.10;;;;;;;;;;1992481;70;26283;-42
2022/09/03 15:04:30;;;;;;;0.20;0.20;;;;;;;;;;1986542;71;26316;-41
2022/09/03 15:06:59;;;;;;;0.20;0.20;;;;;;;;;;2017231;71;26234;-43
2022/09/03 15:09:28;;;;;;;0.20;0.20;;;;;;;;;;1976543;71;26247;-41